sensor_id;sensor_type;location;lat;lon;timestamp;temperature;humidity
1107;DHT22;540;49.448;8.612;2023-05-07T08:51:50;27.30;52.50
1107;DHT22;540;49.448;8.612;2023-05-07T08:54:21;28.50;49.10
1107;DHT22;540;49.448;8.612;2023-05-07T08:56:51;30.60;45.20
1107;DHT22;540;49.448;8.612;2023-05-07T08:59:20;31.20;42.20
1107;DHT22;540;49.448;8.612;2023-05-07T09:01:48;30.80;41.00
1107;DHT22;540;49.448;8.612;2023-05-07T09:04:16;31.00;40.90
1107;DHT22;540;49.448;8.612;2023-05-07T09:06:44;31.80;40.40
1107;DHT22;540;49.448;8.612;2023-05-07T09:09:15;32.50;39.10
1107;DHT22;540;49.448;8.612;2023-05-07T09:11:45;32.60;38.30
1107;DHT22;540;49.448;8.612;2023-05-07T09:14:12;31.90;38.20
1107;DHT22;540;49.448;8.612;2023-05-07T09:16:41;31.50;39.30
1107;DHT22;540;49.448;8.612;2023-05-07T09:19:09;30.80;40.50
1107;DHT22;540;49.448;8.612;2023-05-07T09:21:37;29.50;43.10
1107;DHT22;540;49.448;8.612;2023-05-07T09:24:05;29.00;44.60
1107;DHT22;540;49.448;8.612;2023-05-07T09:26:34;28.00;47.40
1107;DHT22;540;49.448;8.612;2023-05-07T09:29:02;27.60;48.20
1107;DHT22;540;49.448;8.612;2023-05-07T09:31:30;27.40;48.90
1107;DHT22;540;49.448;8.612;2023-05-07T09:33:58;27.10;49.90
1107;DHT22;540;49.448;8.612;2023-05-07T09:36:27;27.00;49.60
1107;DHT22;540;49.448;8.612;2023-05-07T09:38:55;26.90;49.80
1107;DHT22;540;49.448;8.612;2023-05-07T09:41:26;27.00;50.20
1107;DHT22;540;49.448;8.612;2023-05-07T09:43:56;27.30;49.90
1107;DHT22;540;49.448;8.612;2023-05-07T09:46:27;27.60;48.40
1107;DHT22;540;49.448;8.612;2023-05-07T09:48:57;27.40;48.20
1107;DHT22;540;49.448;8.612;2023-05-07T09:51:29;27.20;48.60
1107;DHT22;540;49.448;8.612;2023-05-07T09:53:58;27.50;48.60
1107;DHT22;540;49.448;8.612;2023-05-07T09:56:27;27.90;48.20
1107;DHT22;540;49.448;8.612;2023-05-07T09:58:59;28.20;47.60
1107;DHT22;540;49.448;8.612;2023-05-07T10:01:29;28.70;47.00
1107;DHT22;540;49.448;8.612;2023-05-07T10:03:59;28.50;47.30
1107;DHT22;540;49.448;8.612;2023-05-07T10:06:27;28.30;47.50
1107;DHT22;540;49.448;8.612;2023-05-07T10:08:57;28.40;47.50
1107;DHT22;540;49.448;8.612;2023-05-07T10:11:26;28.70;47.50
1107;DHT22;540;49.448;8.612;2023-05-07T10:13:54;28.90;46.40
1107;DHT22;540;49.448;8.612;2023-05-07T10:16:24;29.50;45.10
1107;DHT22;540;49.448;8.612;2023-05-07T10:18:53;30.00;44.40
1107;DHT22;540;49.448;8.612;2023-05-07T10:21:23;30.20;43.80
1107;DHT22;540;49.448;8.612;2023-05-07T10:23:56;30.40;43.20
1107;DHT22;540;49.448;8.612;2023-05-07T10:26:27;30.70;42.60
1107;DHT22;540;49.448;8.612;2023-05-07T10:29:01;30.90;42.00
1107;DHT22;540;49.448;8.612;2023-05-07T10:31:41;31.00;41.10
1107;DHT22;540;49.448;8.612;2023-05-07T10:34:13;30.80;41.70
1107;DHT22;540;49.448;8.612;2023-05-07T10:36:43;30.90;41.60
1107;DHT22;540;49.448;8.612;2023-05-07T10:39:12;30.80;41.60
1107;DHT22;540;49.448;8.612;2023-05-07T10:41:40;30.80;41.20
1107;DHT22;540;49.448;8.612;2023-05-07T10:44:08;31.20;41.50
1107;DHT22;540;49.448;8.612;2023-05-07T10:46:37;31.20;41.70
1107;DHT22;540;49.448;8.612;2023-05-07T10:49:06;31.40;40.60
1107;DHT22;540;49.448;8.612;2023-05-07T10:51:35;31.30;40.30
1107;DHT22;540;49.448;8.612;2023-05-07T10:54:21;31.40;39.90
1107;DHT22;540;49.448;8.612;2023-05-07T10:56:49;31.60;39.20
1107;DHT22;540;49.448;8.612;2023-05-07T10:59:36;31.40;39.50
1107;DHT22;540;49.448;8.612;2023-05-07T11:02:11;31.40;40.00
1107;DHT22;540;49.448;8.612;2023-05-07T11:04:40;31.50;40.10
1107;DHT22;540;49.448;8.612;2023-05-07T11:07:27;31.60;39.20
1107;DHT22;540;49.448;8.612;2023-05-07T11:10:00;31.60;38.70
1107;DHT22;540;49.448;8.612;2023-05-07T11:12:51;31.70;38.30
1107;DHT22;540;49.448;8.612;2023-05-07T11:15:37;31.50;38.40
1107;DHT22;540;49.448;8.612;2023-05-07T11:18:06;31.80;38.60
1107;DHT22;540;49.448;8.612;2023-05-07T11:20:52;31.70;38.50
1107;DHT22;540;49.448;8.612;2023-05-07T11:23:57;31.50;38.60
1107;DHT22;540;49.448;8.612;2023-05-07T11:26:27;31.30;38.30
1107;DHT22;540;49.448;8.612;2023-05-07T11:28:55;31.70;38.30
1107;DHT22;540;49.448;8.612;2023-05-07T11:31:25;31.10;37.70
1107;DHT22;540;49.448;8.612;2023-05-07T11:33:56;30.40;38.90
1107;DHT22;540;49.448;8.612;2023-05-07T11:36:25;31.00;38.70
1107;DHT22;540;49.448;8.612;2023-05-07T11:38:54;31.40;39.10
1107;DHT22;540;49.448;8.612;2023-05-07T11:41:22;31.50;38.20
1107;DHT22;540;49.448;8.612;2023-05-07T11:43:57;31.60;38.30
1107;DHT22;540;49.448;8.612;2023-05-07T11:46:27;31.70;38.20
1107;DHT22;540;49.448;8.612;2023-05-07T11:48:56;31.70;38.30
1107;DHT22;540;49.448;8.612;2023-05-07T11:51:25;31.60;37.00
1107;DHT22;540;49.448;8.612;2023-05-07T11:53:53;31.20;34.70
1107;DHT22;540;49.448;8.612;2023-05-07T11:56:21;30.70;34.00
1107;DHT22;540;49.448;8.612;2023-05-07T11:58:49;31.20;33.20
1107;DHT22;540;49.448;8.612;2023-05-07T12:01:18;31.00;34.00
1107;DHT22;540;49.448;8.612;2023-05-07T12:03:46;31.20;33.90
1107;DHT22;540;49.448;8.612;2023-05-07T12:06:16;31.00;33.80
1107;DHT22;540;49.448;8.612;2023-05-07T12:08:45;31.40;34.20
1107;DHT22;540;49.448;8.612;2023-05-07T12:11:15;31.70;33.50
1107;DHT22;540;49.448;8.612;2023-05-07T12:13:45;31.40;32.80
1107;DHT22;540;49.448;8.612;2023-05-07T12:16:12;31.30;33.20
1107;DHT22;540;49.448;8.612;2023-05-07T12:18:41;30.80;34.00
1107;DHT22;540;49.448;8.612;2023-05-07T12:21:10;30.90;33.50
1107;DHT22;540;49.448;8.612;2023-05-07T12:23:39;30.50;34.10
1107;DHT22;540;49.448;8.612;2023-05-07T12:26:08;30.50;34.40
1107;DHT22;540;49.448;8.612;2023-05-07T12:28:37;30.40;34.30
1107;DHT22;540;49.448;8.612;2023-05-07T12:31:06;30.10;36.10
1107;DHT22;540;49.448;8.612;2023-05-07T12:33:35;30.10;36.60
1107;DHT22;540;49.448;8.612;2023-05-07T12:36:05;29.90;36.30
1107;DHT22;540;49.448;8.612;2023-05-07T12:38:38;30.40;36.40
1107;DHT22;540;49.448;8.612;2023-05-07T12:41:08;30.80;35.80
1107;DHT22;540;49.448;8.612;2023-05-07T12:43:37;30.70;35.50
1107;DHT22;540;49.448;8.612;2023-05-07T12:46:06;30.80;35.00
1107;DHT22;540;49.448;8.612;2023-05-07T12:48:37;31.20;35.80
1107;DHT22;540;49.448;8.612;2023-05-07T12:51:05;31.20;35.10
1107;DHT22;540;49.448;8.612;2023-05-07T12:53:40;31.20;35.60
1107;DHT22;540;49.448;8.612;2023-05-07T12:56:09;31.00;35.20
1107;DHT22;540;49.448;8.612;2023-05-07T12:58:37;30.70;35.50
1107;DHT22;540;49.448;8.612;2023-05-07T13:01:06;30.40;35.90
1107;DHT22;540;49.448;8.612;2023-05-07T13:03:37;29.80;36.10
1107;DHT22;540;49.448;8.612;2023-05-07T13:06:07;29.30;38.10
1107;DHT22;540;49.448;8.612;2023-05-07T13:08:38;28.70;38.80
1107;DHT22;540;49.448;8.612;2023-05-07T13:11:09;28.30;39.50
1107;DHT22;540;49.448;8.612;2023-05-07T13:13:38;28.00;40.40
1107;DHT22;540;49.448;8.612;2023-05-07T13:16:08;27.90;41.10
1107;DHT22;540;49.448;8.612;2023-05-07T13:18:38;27.80;41.80
1107;DHT22;540;49.448;8.612;2023-05-07T13:21:07;27.60;41.40
1107;DHT22;540;49.448;8.612;2023-05-07T13:23:34;27.50;42.00
1107;DHT22;540;49.448;8.612;2023-05-07T13:26:04;27.30;43.80
1107;DHT22;540;49.448;8.612;2023-05-07T13:28:52;27.10;45.20
1107;DHT22;540;49.448;8.612;2023-05-07T13:31:20;26.90;47.10
1107;DHT22;540;49.448;8.612;2023-05-07T13:33:48;26.60;48.50
1107;DHT22;540;49.448;8.612;2023-05-07T13:36:16;26.40;49.80
1107;DHT22;540;49.448;8.612;2023-05-07T13:38:43;26.30;50.30
1107;DHT22;540;49.448;8.612;2023-05-07T13:41:11;25.90;52.20
1107;DHT22;540;49.448;8.612;2023-05-07T13:43:39;25.60;56.10
1107;DHT22;540;49.448;8.612;2023-05-07T13:46:08;25.40;63.40
1107;DHT22;540;49.448;8.612;2023-05-07T13:48:36;25.20;63.50
1107;DHT22;540;49.448;8.612;2023-05-07T13:51:04;24.10;61.70
1107;DHT22;540;49.448;8.612;2023-05-07T13:53:32;22.10;67.80
1107;DHT22;540;49.448;8.612;2023-05-07T13:56:00;20.80;74.80
1107;DHT22;540;49.448;8.612;2023-05-07T13:58:27;20.00;89.40
1107;DHT22;540;49.448;8.612;2023-05-07T14:00:55;19.50;99.90
1107;DHT22;540;49.448;8.612;2023-05-07T14:03:24;19.50;99.90
1107;DHT22;540;49.448;8.612;2023-05-07T14:05:52;19.40;99.90
1107;DHT22;540;49.448;8.612;2023-05-07T14:08:20;19.30;99.90
1107;DHT22;540;49.448;8.612;2023-05-07T14:10:48;19.20;99.90
1107;DHT22;540;49.448;8.612;2023-05-07T14:13:16;19.60;99.90
1107;DHT22;540;49.448;8.612;2023-05-07T14:15:44;19.60;99.90
1107;DHT22;540;49.448;8.612;2023-05-07T14:18:13;19.70;99.90
1107;DHT22;540;49.448;8.612;2023-05-07T14:20:42;19.50;99.90
1107;DHT22;540;49.448;8.612;2023-05-07T14:23:12;19.10;99.90
1107;DHT22;540;49.448;8.612;2023-05-07T14:25:40;18.70;99.90
1107;DHT22;540;49.448;8.612;2023-05-07T14:28:09;18.50;99.90
1107;DHT22;540;49.448;8.612;2023-05-07T14:30:37;17.90;99.90
1107;DHT22;540;49.448;8.612;2023-05-07T14:33:05;17.20;99.90
1107;DHT22;540;49.448;8.612;2023-05-07T14:35:33;17.60;99.90
1107;DHT22;540;49.448;8.612;2023-05-07T14:38:03;17.50;99.90
1107;DHT22;540;49.448;8.612;2023-05-07T14:40:30;17.10;99.90
1107;DHT22;540;49.448;8.612;2023-05-07T14:42:58;17.00;99.90
1107;DHT22;540;49.448;8.612;2023-05-07T14:45:26;16.80;99.90
1107;DHT22;540;49.448;8.612;2023-05-07T14:47:54;16.20;99.90
1107;DHT22;540;49.448;8.612;2023-05-07T14:50:22;16.20;99.90
1107;DHT22;540;49.448;8.612;2023-05-07T14:52:50;16.60;99.90
1107;DHT22;540;49.448;8.612;2023-05-07T14:55:19;16.30;99.90
1107;DHT22;540;49.448;8.612;2023-05-07T14:57:46;16.40;99.90
1107;DHT22;540;49.448;8.612;2023-05-07T15:00:15;16.40;99.90
1107;DHT22;540;49.448;8.612;2023-05-07T15:02:42;16.00;99.90
1107;DHT22;540;49.448;8.612;2023-05-07T15:05:11;16.10;99.90
1107;DHT22;540;49.448;8.612;2023-05-07T15:07:39;16.10;99.90
1107;DHT22;540;49.448;8.612;2023-05-07T15:10:08;16.20;99.90
1107;DHT22;540;49.448;8.612;2023-05-07T15:12:37;16.20;99.90
1107;DHT22;540;49.448;8.612;2023-05-07T15:15:06;16.00;99.90
1107;DHT22;540;49.448;8.612;2023-05-07T15:17:34;16.30;99.90
1107;DHT22;540;49.448;8.612;2023-05-07T15:20:02;16.30;99.90
1107;DHT22;540;49.448;8.612;2023-05-07T15:22:31;16.20;99.90
1107;DHT22;540;49.448;8.612;2023-05-07T15:24:59;16.30;99.90
1107;DHT22;540;49.448;8.612;2023-05-07T15:27:26;16.40;99.90
1107;DHT22;540;49.448;8.612;2023-05-07T15:29:56;16.30;99.90
1107;DHT22;540;49.448;8.612;2023-05-07T15:32:23;15.90;99.90
1107;DHT22;540;49.448;8.612;2023-05-07T15:34:51;16.30;99.90
1107;DHT22;540;49.448;8.612;2023-05-07T15:37:19;16.10;99.90
1107;DHT22;540;49.448;8.612;2023-05-07T15:39:47;16.20;99.90
1107;DHT22;540;49.448;8.612;2023-05-07T15:42:15;16.40;99.90
1107;DHT22;540;49.448;8.612;2023-05-07T15:44:43;15.70;99.90
1107;DHT22;540;49.448;8.612;2023-05-07T15:47:12;16.10;99.90
1107;DHT22;540;49.448;8.612;2023-05-07T15:49:41;15.90;99.90
1107;DHT22;540;49.448;8.612;2023-05-07T15:52:09;16.20;99.90
1107;DHT22;540;49.448;8.612;2023-05-07T15:54:37;15.60;99.90
1107;DHT22;540;49.448;8.612;2023-05-07T15:57:05;16.00;99.90
1107;DHT22;540;49.448;8.612;2023-05-07T15:59:33;16.10;99.90
1107;DHT22;540;49.448;8.612;2023-05-07T16:02:01;16.10;99.90
1107;DHT22;540;49.448;8.612;2023-05-07T16:04:31;16.20;99.90
1107;DHT22;540;49.448;8.612;2023-05-07T16:06:58;16.20;99.90
1107;DHT22;540;49.448;8.612;2023-05-07T16:09:26;16.30;99.90
1107;DHT22;540;49.448;8.612;2023-05-07T16:11:54;16.20;99.90
1107;DHT22;540;49.448;8.612;2023-05-07T16:14:22;16.20;99.90
1107;DHT22;540;49.448;8.612;2023-05-07T16:16:50;15.60;99.90
1107;DHT22;540;49.448;8.612;2023-05-07T16:19:21;15.90;99.90
1107;DHT22;540;49.448;8.612;2023-05-07T16:21:50;16.00;99.90
1107;DHT22;540;49.448;8.612;2023-05-07T16:24:18;15.90;99.90
1107;DHT22;540;49.448;8.612;2023-05-07T16:26:46;16.00;99.90
1107;DHT22;540;49.448;8.612;2023-05-07T16:29:14;16.00;99.90
1107;DHT22;540;49.448;8.612;2023-05-07T16:31:42;16.10;99.90
1107;DHT22;540;49.448;8.612;2023-05-07T16:34:10;16.20;99.90
1107;DHT22;540;49.448;8.612;2023-05-07T16:36:38;15.80;99.90
1107;DHT22;540;49.448;8.612;2023-05-07T16:39:07;16.10;99.90
1107;DHT22;540;49.448;8.612;2023-05-07T16:41:35;16.10;99.90
1107;DHT22;540;49.448;8.612;2023-05-07T16:44:03;16.00;99.90
1107;DHT22;540;49.448;8.612;2023-05-07T16:46:31;16.20;99.90
1107;DHT22;540;49.448;8.612;2023-05-07T16:48:58;16.40;99.90
1107;DHT22;540;49.448;8.612;2023-05-07T16:51:26;16.20;99.90
1107;DHT22;540;49.448;8.612;2023-05-07T16:53:54;16.40;99.90
1107;DHT22;540;49.448;8.612;2023-05-07T16:56:23;16.40;99.90
1107;DHT22;540;49.448;8.612;2023-05-07T16:58:51;16.30;99.90
1107;DHT22;540;49.448;8.612;2023-05-07T17:01:19;16.50;99.90
1107;DHT22;540;49.448;8.612;2023-05-07T17:03:47;16.10;99.90
1107;DHT22;540;49.448;8.612;2023-05-07T17:06:15;16.30;99.90
1107;DHT22;540;49.448;8.612;2023-05-07T17:08:43;16.40;99.90
1107;DHT22;540;49.448;8.612;2023-05-07T17:11:11;16.50;99.90
1107;DHT22;540;49.448;8.612;2023-05-07T17:13:40;16.30;99.90
1107;DHT22;540;49.448;8.612;2023-05-07T17:16:07;16.50;99.90
1107;DHT22;540;49.448;8.612;2023-05-07T17:18:35;16.60;99.90
1107;DHT22;540;49.448;8.612;2023-05-07T17:21:03;16.60;99.90
1107;DHT22;540;49.448;8.612;2023-05-07T17:23:31;16.60;99.90
1107;DHT22;540;49.448;8.612;2023-05-07T17:25:58;16.50;99.90
1107;DHT22;540;49.448;8.612;2023-05-07T17:28:26;16.70;99.90
1107;DHT22;540;49.448;8.612;2023-05-07T17:30:55;16.60;99.90
1107;DHT22;540;49.448;8.612;2023-05-07T17:33:23;16.60;99.90
1107;DHT22;540;49.448;8.612;2023-05-07T17:35:52;16.50;99.90
1107;DHT22;540;49.448;8.612;2023-05-07T17:38:20;16.60;99.90
1107;DHT22;540;49.448;8.612;2023-05-07T17:40:48;16.40;99.90
1107;DHT22;540;49.448;8.612;2023-05-07T17:43:15;16.20;99.90
1107;DHT22;540;49.448;8.612;2023-05-07T17:45:43;16.70;99.90
1107;DHT22;540;49.448;8.612;2023-05-07T17:48:13;16.50;99.90
1107;DHT22;540;49.448;8.612;2023-05-07T17:50:41;16.40;99.90
1107;DHT22;540;49.448;8.612;2023-05-07T17:53:10;16.40;99.90
1107;DHT22;540;49.448;8.612;2023-05-07T17:55:40;16.60;99.90
1107;DHT22;540;49.448;8.612;2023-05-07T17:58:09;16.70;99.90
1107;DHT22;540;49.448;8.612;2023-05-07T18:00:37;16.60;99.90
1107;DHT22;540;49.448;8.612;2023-05-07T18:03:05;16.70;99.90
1107;DHT22;540;49.448;8.612;2023-05-07T18:05:36;16.70;99.90
1107;DHT22;540;49.448;8.612;2023-05-07T18:08:05;16.70;99.90
1107;DHT22;540;49.448;8.612;2023-05-07T18:10:33;16.90;99.90
1107;DHT22;540;49.448;8.612;2023-05-07T18:13:01;16.90;99.90
1107;DHT22;540;49.448;8.612;2023-05-07T18:15:28;17.00;99.90
1107;DHT22;540;49.448;8.612;2023-05-07T18:17:56;17.20;99.90
1107;DHT22;540;49.448;8.612;2023-05-07T18:20:24;17.20;99.90
1107;DHT22;540;49.448;8.612;2023-05-07T18:22:53;16.90;99.90
1107;DHT22;540;49.448;8.612;2023-05-07T18:25:21;16.90;99.90
1107;DHT22;540;49.448;8.612;2023-05-07T18:27:49;17.20;99.90
1107;DHT22;540;49.448;8.612;2023-05-07T18:30:17;16.90;99.90
1107;DHT22;540;49.448;8.612;2023-05-07T18:32:44;16.80;99.90
1107;DHT22;540;49.448;8.612;2023-05-07T18:35:13;17.10;99.90
1107;DHT22;540;49.448;8.612;2023-05-07T18:37:42;17.20;99.90
1107;DHT22;540;49.448;8.612;2023-05-07T18:40:12;16.90;99.90
1107;DHT22;540;49.448;8.612;2023-05-07T18:42:40;16.80;99.90
1107;DHT22;540;49.448;8.612;2023-05-07T18:45:09;16.80;99.90
1107;DHT22;540;49.448;8.612;2023-05-07T18:47:36;16.80;99.90
1107;DHT22;540;49.448;8.612;2023-05-07T18:50:05;16.90;99.90
1107;DHT22;540;49.448;8.612;2023-05-07T18:52:34;16.80;99.90
1107;DHT22;540;49.448;8.612;2023-05-07T18:55:03;16.50;99.90
1107;DHT22;540;49.448;8.612;2023-05-07T18:57:32;16.90;99.90
1107;DHT22;540;49.448;8.612;2023-05-07T19:00:00;16.90;99.90
1107;DHT22;540;49.448;8.612;2023-05-07T19:02:28;16.90;99.90
1107;DHT22;540;49.448;8.612;2023-05-07T19:04:56;16.60;99.90
1107;DHT22;540;49.448;8.612;2023-05-07T19:07:24;16.90;99.90
1107;DHT22;540;49.448;8.612;2023-05-07T19:09:51;16.90;99.90
1107;DHT22;540;49.448;8.612;2023-05-07T19:12:32;16.80;99.90
1107;DHT22;540;49.448;8.612;2023-05-07T19:15:00;16.80;99.90
1107;DHT22;540;49.448;8.612;2023-05-07T19:17:28;16.70;99.90
1107;DHT22;540;49.448;8.612;2023-05-07T19:19:56;16.90;99.90
1107;DHT22;540;49.448;8.612;2023-05-07T19:22:24;16.10;99.90
1107;DHT22;540;49.448;8.612;2023-05-07T19:24:52;16.70;99.90
1107;DHT22;540;49.448;8.612;2023-05-07T19:27:20;16.20;99.90
1107;DHT22;540;49.448;8.612;2023-05-07T19:29:49;16.80;99.90
1107;DHT22;540;49.448;8.612;2023-05-07T19:32:17;16.60;99.90
1107;DHT22;540;49.448;8.612;2023-05-07T19:34:47;16.60;99.90
1107;DHT22;540;49.448;8.612;2023-05-07T19:37:15;16.50;99.90
1107;DHT22;540;49.448;8.612;2023-05-07T19:39:43;16.50;99.90
1107;DHT22;540;49.448;8.612;2023-05-07T19:42:10;16.70;99.90
1107;DHT22;540;49.448;8.612;2023-05-07T19:44:39;16.60;99.90
1107;DHT22;540;49.448;8.612;2023-05-07T19:47:09;16.80;99.90
1107;DHT22;540;49.448;8.612;2023-05-07T19:49:37;16.70;99.90
1107;DHT22;540;49.448;8.612;2023-05-07T19:52:05;16.50;99.90
1107;DHT22;540;49.448;8.612;2023-05-07T19:54:33;16.50;99.90
1107;DHT22;540;49.448;8.612;2023-05-07T19:57:00;16.50;99.90
1107;DHT22;540;49.448;8.612;2023-05-07T19:59:28;16.70;99.90
1107;DHT22;540;49.448;8.612;2023-05-07T20:01:56;16.50;99.90
1107;DHT22;540;49.448;8.612;2023-05-07T20:04:25;16.70;99.90
1107;DHT22;540;49.448;8.612;2023-05-07T20:06:58;17.10;99.90
1107;DHT22;540;49.448;8.612;2023-05-07T20:09:26;16.30;99.90
1107;DHT22;540;49.448;8.612;2023-05-07T20:11:54;16.90;99.90
1107;DHT22;540;49.448;8.612;2023-05-07T20:14:22;16.70;99.90
1107;DHT22;540;49.448;8.612;2023-05-07T20:16:50;16.90;99.90
1107;DHT22;540;49.448;8.612;2023-05-07T20:19:17;16.90;99.90
1107;DHT22;540;49.448;8.612;2023-05-07T20:21:47;16.70;99.90
1107;DHT22;540;49.448;8.612;2023-05-07T20:24:15;16.80;99.90
1107;DHT22;540;49.448;8.612;2023-05-07T20:26:44;16.80;99.90
1107;DHT22;540;49.448;8.612;2023-05-07T20:29:12;16.70;99.90
1107;DHT22;540;49.448;8.612;2023-05-07T20:31:41;17.00;99.90
1107;DHT22;540;49.448;8.612;2023-05-07T20:34:09;17.10;99.90
1107;DHT22;540;49.448;8.612;2023-05-07T20:36:37;16.50;99.90
1107;DHT22;540;49.448;8.612;2023-05-07T20:39:06;16.90;99.90
1107;DHT22;540;49.448;8.612;2023-05-07T20:41:34;16.80;99.90
1107;DHT22;540;49.448;8.612;2023-05-07T20:44:02;16.20;99.90
1107;DHT22;540;49.448;8.612;2023-05-07T20:46:30;16.80;99.90
1107;DHT22;540;49.448;8.612;2023-05-07T20:48:58;16.80;99.90
1107;DHT22;540;49.448;8.612;2023-05-07T20:51:26;16.70;99.90
1107;DHT22;540;49.448;8.612;2023-05-07T20:53:54;16.40;99.90
1107;DHT22;540;49.448;8.612;2023-05-07T20:56:23;16.70;99.90
1107;DHT22;540;49.448;8.612;2023-05-07T20:58:52;16.80;99.90
1107;DHT22;540;49.448;8.612;2023-05-07T21:01:19;16.80;99.90
1107;DHT22;540;49.448;8.612;2023-05-07T21:03:47;16.90;99.90
1107;DHT22;540;49.448;8.612;2023-05-07T21:06:19;16.70;99.90
1107;DHT22;540;49.448;8.612;2023-05-07T21:08:47;16.80;99.90
1107;DHT22;540;49.448;8.612;2023-05-07T21:11:14;16.90;99.90
1107;DHT22;540;49.448;8.612;2023-05-07T21:13:44;16.90;99.90
1107;DHT22;540;49.448;8.612;2023-05-07T21:16:13;16.70;99.90
1107;DHT22;540;49.448;8.612;2023-05-07T21:18:40;16.60;99.90
1107;DHT22;540;49.448;8.612;2023-05-07T21:21:09;16.70;99.90
1107;DHT22;540;49.448;8.612;2023-05-07T21:23:37;16.50;99.90
1107;DHT22;540;49.448;8.612;2023-05-07T21:26:04;16.80;99.90
1107;DHT22;540;49.448;8.612;2023-05-07T21:28:32;16.70;99.90
1107;DHT22;540;49.448;8.612;2023-05-07T21:31:01;16.60;99.90
1107;DHT22;540;49.448;8.612;2023-05-07T21:33:29;16.50;99.90
1107;DHT22;540;49.448;8.612;2023-05-07T21:35:57;16.20;99.90
1107;DHT22;540;49.448;8.612;2023-05-07T21:38:25;16.70;99.90
1107;DHT22;540;49.448;8.612;2023-05-07T21:40:53;16.40;99.90
1107;DHT22;540;49.448;8.612;2023-05-07T21:43:21;16.80;99.90
1107;DHT22;540;49.448;8.612;2023-05-07T21:45:49;16.40;99.90
1107;DHT22;540;49.448;8.612;2023-05-07T21:48:18;16.40;99.90
1107;DHT22;540;49.448;8.612;2023-05-07T21:50:47;16.70;99.90
1107;DHT22;540;49.448;8.612;2023-05-07T21:53:15;16.50;99.90
1107;DHT22;540;49.448;8.612;2023-05-07T21:55:43;16.60;99.90
1107;DHT22;540;49.448;8.612;2023-05-07T21:58:11;16.70;99.90
1107;DHT22;540;49.448;8.612;2023-05-07T22:00:39;16.90;99.90
1107;DHT22;540;49.448;8.612;2023-05-07T22:03:06;16.60;99.90
1107;DHT22;540;49.448;8.612;2023-05-07T22:05:35;16.70;99.90
1107;DHT22;540;49.448;8.612;2023-05-07T22:08:04;16.70;99.90
1107;DHT22;540;49.448;8.612;2023-05-07T22:10:31;16.70;99.90
1107;DHT22;540;49.448;8.612;2023-05-07T22:12:59;16.90;99.90
1107;DHT22;540;49.448;8.612;2023-05-07T22:15:27;16.70;99.90
1107;DHT22;540;49.448;8.612;2023-05-07T22:17:55;16.80;99.90
1107;DHT22;540;49.448;8.612;2023-05-07T22:20:23;16.90;99.90
1107;DHT22;540;49.448;8.612;2023-05-07T22:22:53;16.70;99.90
1107;DHT22;540;49.448;8.612;2023-05-07T22:25:22;16.70;99.90
1107;DHT22;540;49.448;8.612;2023-05-07T22:27:50;16.70;99.90
1107;DHT22;540;49.448;8.612;2023-05-07T22:30:18;16.60;99.90
1107;DHT22;540;49.448;8.612;2023-05-07T22:32:46;16.50;99.90
1107;DHT22;540;49.448;8.612;2023-05-07T22:35:14;16.70;99.90
1107;DHT22;540;49.448;8.612;2023-05-07T22:37:42;16.60;99.90
1107;DHT22;540;49.448;8.612;2023-05-07T22:40:12;16.50;99.90
1107;DHT22;540;49.448;8.612;2023-05-07T22:42:40;16.60;99.90
1107;DHT22;540;49.448;8.612;2023-05-07T22:45:08;16.60;99.90
1107;DHT22;540;49.448;8.612;2023-05-07T22:47:36;16.30;99.90
1107;DHT22;540;49.448;8.612;2023-05-07T22:50:05;16.30;99.90
1107;DHT22;540;49.448;8.612;2023-05-07T22:52:33;16.60;99.90
1107;DHT22;540;49.448;8.612;2023-05-07T22:55:01;16.40;99.90
1107;DHT22;540;49.448;8.612;2023-05-07T22:57:30;16.40;99.90
1107;DHT22;540;49.448;8.612;2023-05-07T22:59:58;16.70;99.90
1107;DHT22;540;49.448;8.612;2023-05-07T23:02:26;16.50;99.90
1107;DHT22;540;49.448;8.612;2023-05-07T23:04:57;16.40;99.90
1107;DHT22;540;49.448;8.612;2023-05-07T23:07:25;16.40;99.90
1107;DHT22;540;49.448;8.612;2023-05-07T23:09:53;16.40;99.90
1107;DHT22;540;49.448;8.612;2023-05-07T23:12:20;16.50;99.90
1107;DHT22;540;49.448;8.612;2023-05-07T23:14:49;16.50;99.90
1107;DHT22;540;49.448;8.612;2023-05-07T23:17:17;16.70;99.90
1107;DHT22;540;49.448;8.612;2023-05-07T23:19:45;16.50;99.90
1107;DHT22;540;49.448;8.612;2023-05-07T23:22:13;16.60;99.90
1107;DHT22;540;49.448;8.612;2023-05-07T23:24:41;16.70;99.90
1107;DHT22;540;49.448;8.612;2023-05-07T23:27:09;16.50;99.90
1107;DHT22;540;49.448;8.612;2023-05-07T23:29:37;16.50;99.90
1107;DHT22;540;49.448;8.612;2023-05-07T23:32:06;16.70;99.90
1107;DHT22;540;49.448;8.612;2023-05-07T23:34:33;16.60;99.90
1107;DHT22;540;49.448;8.612;2023-05-07T23:37:01;16.60;99.90
1107;DHT22;540;49.448;8.612;2023-05-07T23:39:29;16.40;99.90
1107;DHT22;540;49.448;8.612;2023-05-07T23:41:57;16.70;99.90
1107;DHT22;540;49.448;8.612;2023-05-07T23:44:24;16.40;99.90
1107;DHT22;540;49.448;8.612;2023-05-07T23:46:52;16.60;99.90
1107;DHT22;540;49.448;8.612;2023-05-07T23:49:21;16.50;99.90
1107;DHT22;540;49.448;8.612;2023-05-07T23:51:49;16.80;99.90
1107;DHT22;540;49.448;8.612;2023-05-07T23:54:17;16.50;99.90
1107;DHT22;540;49.448;8.612;2023-05-07T23:56:45;16.70;99.90
1107;DHT22;540;49.448;8.612;2023-05-07T23:59:12;16.70;99.90
